createdAt,value
2022-09-22T00:01:18.713Z,98.50
2022-09-22T00:03:51.061Z,98.50
2022-09-22T00:06:22.932Z,98.50
2022-09-22T00:08:51.785Z,98.50
2022-09-22T00:11:40.461Z,98.50
2022-09-22T00:14:13.798Z,98.50
2022-09-22T00:16:44.837Z,98.50
2022-09-22T00:19:24.875Z,98.50
2022-09-22T00:21:52.207Z,98.50
2022-09-22T00:24:22.523Z,98.50
2022-09-22T00:26:50.191Z,98.50
2022-09-22T00:29:17.245Z,98.50
2022-09-22T00:31:45.141Z,98.50
2022-09-22T00:34:20.902Z,98.50
2022-09-22T00:36:48.798Z,98.50
2022-09-22T00:39:16.907Z,98.50
2022-09-22T00:41:46.399Z,98.50
2022-09-22T00:44:36.526Z,98.50
2022-09-22T00:47:26.863Z,98.50
2022-09-22T00:49:53.507Z,98.50
2022-09-22T00:52:24.561Z,98.50
2022-09-22T00:54:54.667Z,98.50
2022-09-22T00:57:25.890Z,98.50
2022-09-22T00:59:54.335Z,98.50
2022-09-22T01:02:21.311Z,98.50
2022-09-22T01:04:50.797Z,98.50
2022-09-22T01:07:18.859Z,98.50
2022-09-22T01:09:45.532Z,98.50
2022-09-22T01:12:12.977Z,98.50
2022-09-22T01:15:10.500Z,98.50
2022-09-22T01:18:27.324Z,98.50
2022-09-22T01:21:02.616Z,98.50
2022-09-22T01:23:53.353Z,98.50
2022-09-22T01:26:50.117Z,98.50
2022-09-22T01:29:47.071Z,98.50
2022-09-22T01:32:29.849Z,98.50
2022-09-22T01:35:08.221Z,98.50
2022-09-22T01:38:07.199Z,98.50
2022-09-22T01:40:46.963Z,98.50
2022-09-22T01:43:33.028Z,98.50
2022-09-22T01:46:03.236Z,98.50
2022-09-22T01:48:33.149Z,98.50
2022-09-22T01:51:12.003Z,98.50
2022-09-22T01:53:45.258Z,98.50
2022-09-22T01:56:16.195Z,98.50
2022-09-22T01:58:47.669Z,98.50
2022-09-22T02:01:18.190Z,98.50
2022-09-22T02:04:00.214Z,98.50
2022-09-22T02:06:39.875Z,98.50
2022-09-22T02:09:09.969Z,98.50
2022-09-22T02:11:36.835Z,98.50
2022-09-22T02:14:05.491Z,98.50
2022-09-22T02:16:33.060Z,98.50
2022-09-22T02:19:16.370Z,98.50
2022-09-22T02:21:44.975Z,98.50
2022-09-22T02:24:37.632Z,98.50
2022-09-22T02:27:13.868Z,98.50
2022-09-22T02:29:49.757Z,98.50
2022-09-22T02:32:17.479Z,98.50
2022-09-22T02:34:46.390Z,98.50
2022-09-22T02:37:34.445Z,98.50
2022-09-22T02:40:32.632Z,98.50
2022-09-22T02:43:12.527Z,98.50
2022-09-22T02:45:59.814Z,98.50
2022-09-22T02:48:32.869Z,98.50
2022-09-22T02:50:59.805Z,98.50
2022-09-22T02:53:26.493Z,98.50
2022-09-22T02:55:53.167Z,98.50
2022-09-22T02:58:19.760Z,98.50
2022-09-22T03:00:46.386Z,98.50
2022-09-22T03:03:13.385Z,98.50
2022-09-22T03:05:40.253Z,98.50
2022-09-22T03:08:06.899Z,98.50
2022-09-22T03:10:33.786Z,98.50
2022-09-22T03:13:17.435Z,98.50
2022-09-22T03:15:45.624Z,98.50
2022-09-22T03:18:13.515Z,98.50
2022-09-22T03:20:40.628Z,98.50
2022-09-22T03:23:07.766Z,98.50
2022-09-22T03:25:34.533Z,98.50
2022-09-22T03:28:01.404Z,98.50
2022-09-22T03:30:28.093Z,98.50
2022-09-22T03:32:54.755Z,98.50
2022-09-22T03:35:21.593Z,98.50
2022-09-22T03:37:48.255Z,98.50
2022-09-22T03:40:14.988Z,98.50
2022-09-22T03:42:41.712Z,98.50
2022-09-22T03:45:09.404Z,98.50
2022-09-22T03:47:36.064Z,98.50
2022-09-22T03:50:03.009Z,98.50
2022-09-22T03:52:29.707Z,98.50
2022-09-22T03:54:56.403Z,98.50
2022-09-22T03:57:23.041Z,98.50
2022-09-22T03:59:49.737Z,98.50
2022-09-22T04:02:17.112Z,98.50
2022-09-22T04:04:43.811Z,98.50
2022-09-22T04:07:10.507Z,98.50
2022-09-22T04:09:37.225Z,98.50
2022-09-22T04:12:04.139Z,98.50
2022-09-22T04:14:30.772Z,98.50
2022-09-22T04:16:57.472Z,98.50
2022-09-22T04:19:24.460Z,98.50
2022-09-22T04:21:57.070Z,98.50
2022-09-22T04:24:24.744Z,98.50
2022-09-22T04:27:15.625Z,98.50
2022-09-22T04:29:38.614Z,98.50
2022-09-22T04:32:05.877Z,98.50
2022-09-22T04:34:32.560Z,98.50
2022-09-22T04:36:59.445Z,98.50
2022-09-22T04:39:28.524Z,98.50
2022-09-22T04:41:55.538Z,98.50
2022-09-22T04:44:22.573Z,98.50
2022-09-22T04:46:50.305Z,98.50
2022-09-22T04:49:18.125Z,98.50
2022-09-22T04:51:45.341Z,98.50
2022-09-22T04:54:11.988Z,98.50
2022-09-22T04:56:38.798Z,98.50
2022-09-22T04:59:05.552Z,98.50
2022-09-22T05:01:32.326Z,98.50
2022-09-22T05:03:59.305Z,98.50
2022-09-22T05:06:26.504Z,98.50
2022-09-22T05:08:53.403Z,98.50
2022-09-22T05:11:21.993Z,98.50
2022-09-22T05:13:49.316Z,98.50
2022-09-22T05:16:16.992Z,98.50
2022-09-22T05:18:43.721Z,98.50
2022-09-22T05:21:10.597Z,98.50
2022-09-22T05:23:37.425Z,98.50
2022-09-22T05:26:04.052Z,98.50
2022-09-22T05:28:31.033Z,98.50
2022-09-22T05:30:57.720Z,98.50
2022-09-22T05:33:24.429Z,98.50
2022-09-22T05:35:51.147Z,98.50
2022-09-22T05:38:17.813Z,98.50
2022-09-22T05:40:47.496Z,98.50
2022-09-22T05:43:16.750Z,98.50
2022-09-22T05:45:44.623Z,98.50
2022-09-22T05:48:11.492Z,98.50
2022-09-22T05:50:38.366Z,98.50
2022-09-22T05:53:08.244Z,98.50
2022-09-22T05:55:35.512Z,98.50
2022-09-22T05:58:02.547Z,98.50
2022-09-22T06:00:29.959Z,98.50
2022-09-22T06:02:57.007Z,98.50
2022-09-22T06:05:24.226Z,98.50
2022-09-22T06:08:03.214Z,98.50
2022-09-22T06:10:31.418Z,98.50
2022-09-22T06:13:03.224Z,98.50
2022-09-22T06:15:31.227Z,98.50
2022-09-22T06:17:57.920Z,98.50
2022-09-22T06:20:24.655Z,98.50
2022-09-22T06:22:51.388Z,98.50
2022-09-22T06:25:18.190Z,98.50
2022-09-22T06:27:45.160Z,98.50
2022-09-22T06:30:12.675Z,98.50
2022-09-22T06:32:39.876Z,98.50
2022-09-22T06:35:08.111Z,98.50
2022-09-22T06:37:38.485Z,98.50
2022-09-22T06:40:08.242Z,98.50
2022-09-22T06:42:35.807Z,98.50
2022-09-22T06:45:04.560Z,98.50
2022-09-22T06:47:32.901Z,98.50
2022-09-22T06:50:01.329Z,98.50
2022-09-22T06:52:28.906Z,98.50
2022-09-22T06:54:58.588Z,98.50
2022-09-22T06:57:27.287Z,98.50
2022-09-22T06:59:54.239Z,98.50
2022-09-22T07:02:22.257Z,98.50
2022-09-22T07:04:48.985Z,98.50
2022-09-22T07:07:16.562Z,98.50
2022-09-22T07:09:43.301Z,98.50
2022-09-22T07:12:10.029Z,98.50
2022-09-22T07:14:36.805Z,98.40
2022-09-22T07:17:03.549Z,98.30
2022-09-22T07:19:36.168Z,98.00
2022-09-22T07:22:03.280Z,97.10
2022-09-22T07:24:29.919Z,98.10
2022-09-22T07:26:56.599Z,98.50
2022-09-22T07:29:23.666Z,98.50
2022-09-22T07:31:51.734Z,98.50
2022-09-22T07:34:18.680Z,98.50
2022-09-22T07:36:45.685Z,98.40
2022-09-22T07:39:12.537Z,97.50
2022-09-22T07:41:43.240Z,97.30
2022-09-22T07:44:30.872Z,95.90
2022-09-22T07:46:58.335Z,96.60
2022-09-22T07:49:25.021Z,95.40
2022-09-22T07:51:58.042Z,95.40
2022-09-22T07:54:25.982Z,95.80
2022-09-22T07:56:56.025Z,95.70
2022-09-22T07:59:22.721Z,95.80
2022-09-22T08:01:50.733Z,97.00
2022-09-22T08:04:22.643Z,97.00
2022-09-22T08:06:52.937Z,95.70
2022-09-22T08:09:19.687Z,95.30
2022-09-22T08:11:48.589Z,93.20
2022-09-22T08:14:17.315Z,94.20
2022-09-22T08:16:45.770Z,95.20
2022-09-22T08:19:14.022Z,95.20
2022-09-22T08:21:48.762Z,95.20
2022-09-22T08:24:21.408Z,94.50
2022-09-22T08:26:52.647Z,93.10
2022-09-22T08:29:20.342Z,93.40
2022-09-22T08:31:47.761Z,92.60
2022-09-22T08:34:16.609Z,93.20
2022-09-22T08:36:46.589Z,93.10
2022-09-22T08:39:13.737Z,93.90
2022-09-22T08:42:13.944Z,93.00
2022-09-22T08:45:02.893Z,92.40
2022-09-22T08:48:04.711Z,91.80
2022-09-22T08:50:57.992Z,94.30
2022-09-22T08:53:26.813Z,94.60
2022-09-22T08:56:14.515Z,93.70
2022-09-22T08:58:55.057Z,92.50
2022-09-22T09:01:46.898Z,93.00
2022-09-22T09:04:49.191Z,93.30
2022-09-22T09:07:29.184Z,92.50
2022-09-22T09:10:15.075Z,92.10
2022-09-22T09:12:55.739Z,92.10
2022-09-22T09:15:51.568Z,91.90
2022-09-22T09:18:27.017Z,91.10
2022-09-22T09:20:54.895Z,90.70
2022-09-22T09:25:22.010Z,89.90
2022-09-22T09:26:18.095Z,89.50
2022-09-22T09:28:48.665Z,88.70
2022-09-22T09:31:31.058Z,87.00
2022-09-22T09:34:14.445Z,87.40
2022-09-22T09:36:44.760Z,87.80
2022-09-22T09:39:16.732Z,88.00
2022-09-22T09:41:46.957Z,87.40
2022-09-22T09:44:44.048Z,86.70
2022-09-22T09:47:29.237Z,86.80
2022-09-22T09:49:56.048Z,86.30
2022-09-22T09:52:25.807Z,86.90
2022-09-22T09:54:54.256Z,86.10
2022-09-22T09:57:27.707Z,86.60
2022-09-22T10:00:33.196Z,86.20
2022-09-22T10:03:03.065Z,86.10
2022-09-22T10:05:31.842Z,84.50
2022-09-22T10:08:02.933Z,83.00
2022-09-22T10:10:29.584Z,84.60
2022-09-22T10:13:28.515Z,84.20
2022-09-22T10:16:22.779Z,84.80
2022-09-22T10:18:52.130Z,84.90
2022-09-22T10:21:23.501Z,84.60
2022-09-22T10:23:51.317Z,84.10
2022-09-22T10:26:31.910Z,82.20
2022-09-22T10:29:18.890Z,83.40
2022-09-22T10:32:00.897Z,83.30
2022-09-22T10:34:37.208Z,83.10
2022-09-22T10:37:10.374Z,82.80
2022-09-22T10:39:57.493Z,83.00
2022-09-22T10:42:41.227Z,82.50
2022-09-22T10:45:13.808Z,81.90
2022-09-22T10:47:43.669Z,82.40
2022-09-22T10:50:31.294Z,81.10
2022-09-22T10:53:21.683Z,81.20
2022-09-22T10:56:13.686Z,80.60
2022-09-22T10:59:16.757Z,79.40
2022-09-22T11:01:53.313Z,80.00
2022-09-22T11:04:51.402Z,78.90
2022-09-22T11:07:44.604Z,78.80
2022-09-22T11:10:53.015Z,79.70
2022-09-22T11:13:38.621Z,81.00
2022-09-22T11:16:28.376Z,80.10
2022-09-22T11:19:12.703Z,77.90
2022-09-22T11:21:43.740Z,78.50
2022-09-22T11:24:23.757Z,78.50
2022-09-22T11:26:58.854Z,78.30
2022-09-22T11:29:47.240Z,78.40
2022-09-22T11:32:48.969Z,79.10
2022-09-22T11:35:18.765Z,78.40
2022-09-22T11:38:18.919Z,78.80
2022-09-22T11:40:51.397Z,77.50
2022-09-22T11:43:38.521Z,79.00
2022-09-22T11:46:25.186Z,78.90
2022-09-22T11:49:16.231Z,77.40
2022-09-22T11:52:00.432Z,74.50
2022-09-22T11:54:46.920Z,76.40
2022-09-22T11:57:23.493Z,77.30
2022-09-22T12:00:11.426Z,77.60
2022-09-22T12:03:02.429Z,76.70
2022-09-22T12:05:35.387Z,77.00
2022-09-22T12:08:16.958Z,76.10
2022-09-22T12:10:45.316Z,77.10
2022-09-22T12:13:22.037Z,78.10
2022-09-22T12:16:10.876Z,75.60
2022-09-22T12:18:49.998Z,73.90
2022-09-22T12:21:39.947Z,76.70
2022-09-22T12:24:11.640Z,75.80
2022-09-22T12:26:41.095Z,74.40
2022-09-22T12:29:16.551Z,74.10
2022-09-22T12:31:47.321Z,73.90
2022-09-22T12:34:22.308Z,73.20
2022-09-22T12:36:53.687Z,74.20
2022-09-22T12:39:30.955Z,73.90
2022-09-22T12:42:02.518Z,75.10
2022-09-22T12:44:36.502Z,74.10
2022-09-22T12:47:07.698Z,75.20
2022-09-22T12:49:34.538Z,74.70
2022-09-22T12:52:01.427Z,74.60
2022-09-22T12:54:36.913Z,72.60
2022-09-22T12:59:40.161Z,74.10
2022-09-22T13:02:31.620Z,74.90
2022-09-22T13:04:58.587Z,75.30
2022-09-22T13:07:34.050Z,73.90
2022-09-22T13:10:22.868Z,72.00
2022-09-22T13:13:09.242Z,71.20
2022-09-22T13:15:51.050Z,71.70
2022-09-22T13:18:37.299Z,72.00
2022-09-22T13:21:12.920Z,73.60
2022-09-22T13:23:49.340Z,74.20
2022-09-22T13:26:17.014Z,73.00
2022-09-22T13:28:44.628Z,72.50
2022-09-22T13:31:19.492Z,72.60
2022-09-22T13:33:46.504Z,73.30
2022-09-22T13:36:18.922Z,72.50
2022-09-22T13:38:51.313Z,72.50
2022-09-22T13:41:23.980Z,71.50
2022-09-22T13:44:04.049Z,74.40
2022-09-22T13:46:41.019Z,73.10
2022-09-22T13:49:11.577Z,75.00
2022-09-22T13:51:38.529Z,76.00
2022-09-22T13:54:07.048Z,75.70
2022-09-22T13:56:34.544Z,75.20
2022-09-22T13:59:02.948Z,73.70
2022-09-22T14:01:30.644Z,74.50
2022-09-22T14:03:57.688Z,74.70
2022-09-22T14:06:27.090Z,74.20
2022-09-22T14:08:55.045Z,72.70
2022-09-22T14:11:33.100Z,73.40
2022-09-22T14:14:01.764Z,73.90
2022-09-22T14:16:56.645Z,74.90
2022-09-22T14:19:29.216Z,73.60
2022-09-22T14:21:58.081Z,72.30
2022-09-22T14:24:26.360Z,72.80
2022-09-22T14:26:59.060Z,73.30
2022-09-22T14:29:36.530Z,73.00
2022-09-22T14:32:09.534Z,73.70
2022-09-22T14:34:39.388Z,72.90
2022-09-22T14:37:28.366Z,73.70
2022-09-22T14:39:57.207Z,72.80
2022-09-22T14:42:34.924Z,72.30
2022-09-22T14:45:21.131Z,72.30
2022-09-22T14:48:17.427Z,72.50
2022-09-22T14:50:48.416Z,73.40
2022-09-22T14:53:26.765Z,74.60
2022-09-22T14:56:34.087Z,74.90
2022-09-22T14:59:25.748Z,74.50
2022-09-22T15:02:12.509Z,73.90
2022-09-22T15:04:43.105Z,74.70
2022-09-22T15:07:24.767Z,73.50
2022-09-22T15:10:01.064Z,73.90
2022-09-22T15:12:40.194Z,74.70
2022-09-22T15:15:23.776Z,74.90
2022-09-22T15:18:21.568Z,74.20
2022-09-22T15:20:52.665Z,74.70
2022-09-22T15:23:21.716Z,75.50
2022-09-22T15:25:49.804Z,75.00
2022-09-22T15:28:23.705Z,76.00
2022-09-22T15:30:52.241Z,76.00
2022-09-22T15:33:21.012Z,75.60
2022-09-22T15:35:52.026Z,74.90
2022-09-22T15:38:21.154Z,75.60
2022-09-22T15:40:48.388Z,76.70
2022-09-22T15:43:20.755Z,77.30
2022-09-22T15:45:53.880Z,76.30
2022-09-22T15:48:27.733Z,77.10
2022-09-22T15:50:55.821Z,77.20
2022-09-22T15:53:24.010Z,77.60
2022-09-22T15:55:52.646Z,79.00
2022-09-22T15:58:22.938Z,77.80
2022-09-22T16:00:52.247Z,79.20
2022-09-22T16:03:24.369Z,79.30
2022-09-22T16:06:03.463Z,80.40
2022-09-22T16:08:44.704Z,80.10
2022-09-22T16:11:29.374Z,79.80
2022-09-22T16:13:58.242Z,79.60
2022-09-22T16:16:27.096Z,80.20
2022-09-22T16:18:54.223Z,80.80
2022-09-22T16:21:27.311Z,82.80
2022-09-22T16:23:59.524Z,83.00
2022-09-22T16:26:31.565Z,82.60
2022-09-22T16:28:58.754Z,84.40
2022-09-22T16:31:27.099Z,83.90
2022-09-22T16:33:55.901Z,83.90
2022-09-22T16:36:24.641Z,83.70
2022-09-22T16:38:51.320Z,84.10
2022-09-22T16:41:25.064Z,82.90
2022-09-22T16:43:52.731Z,84.30
2022-09-22T16:46:30.332Z,83.30
2022-09-22T16:49:03.202Z,84.50
2022-09-22T16:51:36.178Z,84.80
2022-09-22T16:54:05.468Z,84.10
2022-09-22T16:56:34.373Z,85.20
2022-09-22T16:59:01.609Z,85.90
2022-09-22T17:01:31.128Z,86.40
2022-09-22T17:03:58.513Z,86.40
2022-09-22T17:06:26.790Z,87.00
2022-09-22T17:08:56.879Z,87.70
2022-09-22T17:11:30.102Z,87.70
2022-09-22T17:14:02.936Z,88.00
2022-09-22T17:16:52.428Z,88.10
2022-09-22T17:19:27.560Z,88.50
2022-09-22T17:21:55.881Z,89.50
2022-09-22T17:24:23.747Z,90.00
2022-09-22T17:26:55.980Z,90.30
2022-09-22T17:29:27.644Z,90.70
2022-09-22T17:32:00.200Z,91.20
2022-09-22T17:34:28.575Z,91.30
2022-09-22T17:36:56.841Z,91.50
2022-09-22T17:39:24.531Z,91.50
2022-09-22T17:41:51.804Z,91.20
2022-09-22T17:44:21.357Z,90.80
2022-09-22T17:47:11.416Z,90.80
2022-09-22T17:49:58.188Z,90.60
2022-09-22T17:52:28.367Z,90.80
2022-09-22T17:55:09.274Z,91.50
2022-09-22T17:57:41.092Z,91.30
2022-09-22T18:00:10.780Z,91.50
2022-09-22T18:02:38.828Z,91.70
2022-09-22T18:05:11.668Z,92.00
2022-09-22T18:07:40.380Z,92.20
2022-09-22T18:10:13.282Z,92.20
2022-09-22T18:12:41.148Z,92.30
2022-09-22T18:15:12.696Z,92.30
2022-09-22T18:17:44.465Z,92.20
2022-09-22T18:20:21.215Z,92.20
2022-09-22T18:22:49.115Z,92.30
2022-09-22T18:25:23.036Z,92.90
2022-09-22T18:27:50.044Z,92.70
2022-09-22T18:30:19.166Z,92.30
2022-09-22T18:32:47.177Z,92.10
2022-09-22T18:35:15.349Z,92.40
2022-09-22T18:37:42.238Z,92.90
2022-09-22T18:40:11.290Z,93.10
2022-09-22T18:42:40.225Z,93.50
2022-09-22T18:45:07.683Z,94.00
2022-09-22T18:47:39.659Z,94.20
2022-09-22T18:50:06.802Z,94.70
2022-09-22T18:52:33.657Z,95.50
2022-09-22T18:55:02.473Z,95.80
2022-09-22T18:57:29.288Z,95.90
2022-09-22T18:59:59.803Z,96.00
2022-09-22T19:02:26.594Z,96.30
2022-09-22T19:04:53.577Z,96.50
2022-09-22T19:07:42.432Z,97.00
2022-09-22T19:10:15.226Z,97.20
2022-09-22T19:12:42.592Z,97.60
2022-09-22T19:15:16.420Z,97.80
2022-09-22T19:17:45.012Z,98.20
2022-09-22T19:20:31.109Z,98.50
2022-09-22T19:22:57.760Z,98.50
2022-09-22T19:25:24.535Z,98.50
2022-09-22T19:27:52.864Z,98.50
2022-09-22T19:30:23.376Z,98.50
2022-09-22T19:32:51.653Z,98.50
2022-09-22T19:35:19.456Z,98.50
2022-09-22T19:37:46.934Z,98.50
2022-09-22T19:40:18.570Z,98.50
2022-09-22T19:42:46.789Z,98.50
2022-09-22T19:45:13.643Z,98.50
2022-09-22T19:47:41.348Z,98.50
2022-09-22T19:50:08.533Z,98.50
2022-09-22T19:52:35.993Z,98.50
2022-09-22T19:55:02.731Z,98.50
2022-09-22T19:57:29.385Z,98.50
2022-09-22T19:59:56.308Z,98.50
2022-09-22T20:02:24.588Z,98.50
2022-09-22T20:04:51.301Z,98.50
2022-09-22T20:07:18.011Z,98.50
2022-09-22T20:09:46.267Z,98.50
2022-09-22T20:12:13.057Z,98.50
2022-09-22T20:14:39.926Z,98.50
2022-09-22T20:17:08.610Z,98.50
2022-09-22T20:19:40.503Z,98.50
2022-09-22T20:22:22.216Z,98.50
2022-09-22T20:24:54.794Z,98.50
2022-09-22T20:27:24.312Z,98.50
2022-09-22T20:29:55.064Z,98.50
2022-09-22T20:32:24.269Z,98.50
2022-09-22T20:34:52.209Z,98.50
2022-09-22T20:37:19.252Z,98.50
2022-09-22T20:39:45.975Z,98.50
2022-09-22T20:42:13.686Z,98.50
2022-09-22T20:44:42.137Z,98.50
2022-09-22T20:47:13.885Z,98.50
2022-09-22T20:49:46.842Z,98.50
2022-09-22T20:52:18.426Z,98.50
2022-09-22T20:54:46.329Z,98.50
2022-09-22T20:57:14.029Z,98.50
2022-09-22T20:59:46.703Z,98.50
2022-09-22T21:02:14.967Z,98.50
2022-09-22T21:04:42.115Z,98.50
2022-09-22T21:07:10.446Z,98.50
2022-09-22T21:09:55.820Z,98.50
2022-09-22T21:12:27.346Z,98.50
2022-09-22T21:14:57.603Z,98.50
2022-09-22T21:17:24.599Z,98.50
2022-09-22T21:19:51.349Z,98.50
2022-09-22T21:22:18.016Z,98.50
2022-09-22T21:24:48.660Z,98.50
2022-09-22T21:27:15.427Z,98.50
2022-09-22T21:29:42.338Z,98.50
2022-09-22T21:32:09.557Z,98.50
2022-09-22T21:34:36.568Z,98.50
2022-09-22T21:37:04.186Z,98.50
2022-09-22T21:39:30.889Z,98.50
2022-09-22T21:41:57.528Z,98.50
2022-09-22T21:44:24.336Z,98.50
2022-09-22T21:46:50.973Z,98.50
2022-09-22T21:49:17.686Z,98.50
2022-09-22T21:51:44.482Z,98.50
2022-09-22T21:54:18.963Z,98.50
2022-09-22T21:56:46.100Z,98.50
2022-09-22T21:59:13.394Z,98.50
2022-09-22T22:01:42.213Z,98.50
2022-09-22T22:04:13.399Z,98.50
2022-09-22T22:06:42.093Z,98.50
2022-09-22T22:09:20.187Z,98.50
2022-09-22T22:11:52.876Z,98.50
2022-09-22T22:14:21.492Z,98.50
2022-09-22T22:16:50.848Z,98.50
2022-09-22T22:19:20.175Z,98.50
2022-09-22T22:21:48.882Z,98.50
2022-09-22T22:24:17.935Z,98.50
2022-09-22T22:26:47.052Z,98.50
2022-09-22T22:29:13.997Z,98.50
2022-09-22T22:31:41.701Z,98.50
2022-09-22T22:34:13.488Z,98.50
2022-09-22T22:36:40.899Z,98.50
2022-09-22T22:39:09.098Z,98.50
2022-09-22T22:41:36.241Z,98.50
2022-09-22T22:44:03.392Z,98.50
2022-09-22T22:46:30.145Z,98.50
2022-09-22T22:48:57.668Z,98.50
2022-09-22T22:51:24.914Z,98.50
2022-09-22T22:53:53.117Z,98.50
2022-09-22T22:56:25.270Z,98.50
2022-09-22T22:58:53.129Z,98.50
2022-09-22T23:01:21.039Z,98.50
2022-09-22T23:03:56.350Z,98.50
2022-09-22T23:06:31.715Z,98.50
2022-09-22T23:08:58.743Z,98.50
2022-09-22T23:11:31.082Z,98.50
2022-09-22T23:14:01.951Z,98.50
2022-09-22T23:16:33.923Z,98.50
2022-09-22T23:19:02.816Z,98.50
2022-09-22T23:21:32.836Z,98.50
2022-09-22T23:24:01.026Z,98.50
2022-09-22T23:26:29.790Z,98.50
2022-09-22T23:29:01.559Z,98.50
2022-09-22T23:31:28.401Z,98.50
2022-09-22T23:33:55.058Z,98.50
2022-09-22T23:36:24.380Z,98.50
2022-09-22T23:38:55.621Z,98.50
2022-09-22T23:41:22.887Z,98.50
2022-09-22T23:43:50.473Z,98.50
2022-09-22T23:46:17.451Z,98.50
2022-09-22T23:48:44.172Z,98.50
2022-09-22T23:51:10.796Z,98.50
2022-09-22T23:53:38.101Z,98.50
2022-09-22T23:56:06.273Z,98.50
2022-09-22T23:58:33.956Z,98.50
